createdAt,value
2023-05-19T00:03:17.995Z,3.92
2023-05-19T00:10:37.086Z,4.28
2023-05-19T00:17:56.926Z,4.38
2023-05-19T00:25:15.297Z,4.50
2023-05-19T00:32:33.703Z,4.10
2023-05-19T00:39:53.702Z,3.97
2023-05-19T00:47:12.436Z,4.25
2023-05-19T00:54:31.200Z,4.07
2023-05-19T01:01:51.276Z,3.88
2023-05-19T01:09:10.515Z,4.10
2023-05-19T01:16:32.477Z,4.03
2023-05-19T01:23:58.987Z,3.40
2023-05-19T01:31:19.374Z,4.20
2023-05-19T01:38:40.391Z,4.40
2023-05-19T01:45:59.929Z,4.80
2023-05-19T01:53:19.975Z,4.28
2023-05-19T02:00:47.767Z,3.80
2023-05-19T02:08:14.011Z,4.55
2023-05-19T02:15:38.832Z,4.40
2023-05-19T02:22:57.437Z,4.00
2023-05-19T02:30:15.878Z,4.63
2023-05-19T02:37:36.137Z,4.95
2023-05-19T02:44:55.806Z,5.03
2023-05-19T02:52:14.098Z,5.22
2023-05-19T02:59:33.855Z,5.15
2023-05-19T03:06:52.090Z,6.45
2023-05-19T03:14:10.732Z,5.85
2023-05-19T03:21:32.263Z,5.75
2023-05-19T03:28:50.968Z,5.63
2023-05-19T03:36:12.745Z,5.43
2023-05-19T03:43:33.560Z,5.72
2023-05-19T03:50:56.898Z,6.22
2023-05-19T03:58:18.084Z,5.70
2023-05-19T04:05:38.210Z,5.85
2023-05-19T04:12:57.150Z,5.60
2023-05-19T04:20:17.650Z,5.90
2023-05-19T04:27:39.041Z,5.93
2023-05-19T04:34:59.105Z,6.68
2023-05-19T04:42:20.972Z,5.53
2023-05-19T04:49:41.928Z,4.78
2023-05-19T04:57:00.488Z,4.35
2023-05-19T05:04:21.790Z,4.85
2023-05-19T05:11:44.678Z,4.57
2023-05-19T05:19:04.371Z,4.45
2023-05-19T05:26:23.779Z,4.78
2023-05-19T05:33:48.291Z,5.18
2023-05-19T05:41:09.699Z,5.03
2023-05-19T05:48:30.292Z,3.88
2023-05-19T05:55:51.930Z,4.40
2023-05-19T06:03:14.784Z,3.00
2023-05-19T06:10:33.746Z,4.85
2023-05-19T06:17:54.952Z,4.03
2023-05-19T06:25:14.113Z,3.90
2023-05-19T06:32:33.632Z,3.90
2023-05-19T06:39:54.428Z,4.30
2023-05-19T06:47:13.455Z,4.05
2023-05-19T06:54:32.000Z,3.53
2023-05-19T07:01:53.234Z,3.03
2023-05-19T07:09:11.767Z,3.53
2023-05-19T07:16:31.711Z,3.30
2023-05-19T07:23:52.531Z,3.20
2023-05-19T07:31:11.697Z,3.25
2023-05-19T07:38:30.302Z,3.45
2023-05-19T07:45:50.313Z,2.78
2023-05-19T07:53:08.709Z,2.63
2023-05-19T08:00:27.433Z,3.38
2023-05-19T08:07:47.541Z,3.10
2023-05-19T08:15:06.639Z,3.60
2023-05-19T08:22:25.072Z,3.83
2023-05-19T08:29:44.994Z,3.55
2023-05-19T08:37:03.376Z,3.50
2023-05-19T08:44:21.976Z,3.53
2023-05-19T08:51:48.731Z,3.13
2023-05-19T08:59:08.421Z,2.60
2023-05-19T09:06:27.174Z,2.67
2023-05-19T09:13:48.875Z,2.67
2023-05-19T09:21:07.767Z,2.13
2023-05-19T09:28:27.515Z,2.38
2023-05-19T09:35:50.106Z,3.10
2023-05-19T09:43:10.545Z,3.20
2023-05-19T09:50:30.291Z,3.78
2023-05-19T09:57:50.389Z,3.83
2023-05-19T10:05:09.381Z,4.38
2023-05-19T10:12:28.220Z,4.45
2023-05-19T10:19:49.714Z,3.85
2023-05-19T10:27:12.166Z,4.32
2023-05-19T10:35:01.336Z,3.30
2023-05-19T10:42:29.718Z,3.95
2023-05-19T10:49:48.330Z,4.65
2023-05-19T10:57:08.490Z,4.60
2023-05-19T11:04:41.503Z,5.00
2023-05-19T11:12:04.990Z,4.82
2023-05-19T11:26:47.876Z,5.95
2023-05-19T11:34:07.700Z,6.65
2023-05-19T11:41:28.600Z,6.15
2023-05-19T11:48:50.785Z,6.00
2023-05-19T11:56:09.147Z,6.80
2023-05-19T12:03:30.009Z,6.70
2023-05-19T12:10:50.520Z,6.03
2023-05-19T12:18:09.077Z,6.47
2023-05-19T12:25:29.325Z,6.50
2023-05-19T12:32:49.397Z,6.97
2023-05-19T12:40:09.597Z,7.07
2023-05-19T12:47:34.966Z,8.82
2023-05-19T12:55:00.588Z,9.30
2023-05-19T13:02:19.555Z,9.82
2023-05-19T13:09:39.792Z,10.57
2023-05-19T13:16:58.426Z,11.18
2023-05-19T13:24:17.281Z,12.20
2023-05-19T13:31:37.824Z,10.70
2023-05-19T13:38:56.412Z,9.55
2023-05-19T13:46:15.050Z,9.80
2023-05-19T13:53:35.043Z,10.38
2023-05-19T14:00:55.848Z,11.32
2023-05-19T14:08:14.552Z,11.85
2023-05-19T14:15:38.438Z,12.13
2023-05-19T14:22:57.777Z,13.05
2023-05-19T14:30:17.746Z,13.13
2023-05-19T14:37:39.173Z,13.13
2023-05-19T14:44:57.849Z,13.10
2023-05-19T14:52:18.751Z,12.13
2023-05-19T14:59:40.208Z,12.90
2023-05-19T15:14:24.588Z,16.02
2023-05-19T15:21:45.874Z,14.68
2023-05-19T15:29:04.474Z,14.52
2023-05-19T15:36:22.992Z,12.38
2023-05-19T15:43:42.920Z,12.88
2023-05-19T15:51:02.124Z,13.15
2023-05-19T15:58:20.716Z,12.77
2023-05-19T16:05:40.776Z,13.27
2023-05-19T16:12:59.239Z,14.20
2023-05-19T16:20:17.756Z,13.75
2023-05-19T16:27:38.739Z,12.57
2023-05-19T16:34:57.282Z,11.75
2023-05-19T16:42:15.907Z,12.52
2023-05-19T16:49:36.040Z,12.25
2023-05-19T16:56:55.067Z,11.50
2023-05-19T17:04:13.898Z,11.32
2023-05-19T17:11:33.953Z,13.07
2023-05-19T17:18:52.730Z,12.80
2023-05-19T17:26:11.142Z,11.15
2023-05-19T17:33:31.042Z,12.52
2023-05-19T17:40:49.785Z,12.70
2023-05-19T17:48:11.861Z,12.85
2023-05-19T17:55:34.378Z,12.18
2023-05-19T18:02:54.025Z,12.13
2023-05-19T18:10:13.934Z,13.13
2023-05-19T18:17:34.691Z,11.70
2023-05-19T18:24:53.449Z,14.13
2023-05-19T18:32:17.660Z,13.48
2023-05-19T18:39:39.125Z,14.48
2023-05-19T18:46:58.017Z,16.00
2023-05-19T18:54:17.759Z,16.38
2023-05-19T19:01:38.066Z,16.80
2023-05-19T19:08:56.724Z,16.05
2023-05-19T19:16:15.331Z,15.80
2023-05-19T19:23:35.448Z,17.77
2023-05-19T19:30:53.987Z,13.70
2023-05-19T19:38:12.747Z,13.73
2023-05-19T19:45:34.932Z,12.05
2023-05-19T19:52:53.356Z,11.30
2023-05-19T20:00:13.777Z,10.48
2023-05-19T20:07:34.046Z,10.48
2023-05-19T20:14:54.826Z,12.43
2023-05-19T20:22:13.175Z,13.00
2023-05-19T20:29:33.602Z,14.15
2023-05-19T20:36:51.934Z,14.07
2023-05-19T20:44:10.693Z,14.40
2023-05-19T20:51:30.407Z,14.93
2023-05-19T20:58:56.490Z,17.25
2023-05-19T21:06:15.100Z,18.88
2023-05-19T21:13:39.255Z,21.00
2023-05-19T21:20:57.931Z,19.60
2023-05-19T21:28:16.292Z,19.70
2023-05-19T21:35:36.179Z,19.92
2023-05-19T21:42:54.608Z,19.90
2023-05-19T21:50:15.807Z,20.50
2023-05-19T21:57:35.745Z,21.13
2023-05-19T22:04:54.158Z,21.73
2023-05-19T22:12:12.391Z,20.27
2023-05-19T22:19:32.305Z,19.98
2023-05-19T22:26:51.057Z,22.48
2023-05-19T22:34:12.798Z,21.77
2023-05-19T22:41:34.181Z,22.33
2023-05-19T22:48:52.622Z,22.77
2023-05-19T22:56:11.175Z,22.02
2023-05-19T23:03:31.091Z,21.98
2023-05-19T23:10:49.600Z,21.13
2023-05-19T23:18:08.816Z,21.08
2023-05-19T23:25:29.050Z,22.08
2023-05-19T23:32:47.894Z,21.65
2023-05-19T23:40:09.577Z,23.00
2023-05-19T23:47:29.615Z,23.08
2023-05-19T23:54:48.042Z,21.23
